Time;durP1;ratioP1;P1;durP2;ratioP2;P2;SDS_P1;SDS_P2;PMS_P1;PMS_P2;Temp;Humidity;BMP_temperature;BMP_pressure;BME280_temperature;BME280_humidity;BME280_pressure;Samples;Min_cycle;Max_cycle;Signal;HPM_P1;HPM_P2
2022/10/27 00:01:51;;;;;;;;;;;;;;;11.85;100.00;102033.78;4949988;28;19934;-76
2022/10/27 00:04:16;;;;;;;;;;;;;;;11.85;100.00;102040.84;4970441;28;19934;-75
2022/10/27 00:06:42;;;;;;;;;;;;;;;11.85;100.00;102036.41;4951442;28;19936;-76
2022/10/27 00:09:07;;;;;;;;;;;;;;;11.86;100.00;102039.94;4954876;28;19957;-76
2022/10/27 00:11:32;;;;;;;;;;;;;;;11.84;100.00;102042.66;4970862;28;19988;-75
2022/10/27 00:13:58;;;;;;;;;;;;;;;11.80;100.00;102036.56;4953851;28;19933;-76
2022/10/27 00:16:23;;;;;;;;;;;;;;;11.80;100.00;102036.56;4953200;28;19973;-75
2022/10/27 00:18:49;;;;;;;;;;;;;;;11.80;100.00;102044.53;4952494;28;20358;-75
2022/10/27 00:21:15;;;;;;;;;;;;;;;11.79;100.00;102045.47;4937124;28;19930;-76
2022/10/27 00:23:41;;;;;;;;;;;;;;;11.76;100.00;102045.53;4971035;28;20157;-76
2022/10/27 00:26:08;;;;;;;;;;;;;;;11.72;100.00;102043.88;4969830;28;20831;-75
2022/10/27 00:28:34;;;;;;;;;;;;;;;11.72;100.00;102046.53;4949653;28;20006;-75
2022/10/27 00:31:00;;;;;;;;;;;;;;;11.70;100.00;102040.41;4971553;28;20009;-76
2022/10/27 00:33:25;;;;;;;;;;;;;;;11.69;100.00;102046.66;4955096;28;20104;-76
2022/10/27 00:35:51;;;;;;;;;;;;;;;11.65;100.00;102052.94;4971229;28;20164;-75
2022/10/27 00:38:16;;;;;;;;;;;;;;;11.66;100.00;102060.00;4967798;28;19942;-76
2022/10/27 00:40:42;;;;;;;;;;;;;;;11.66;100.00;102060.88;4954233;28;20140;-76
2022/10/27 00:43:26;;;;;;;;;;;;;;;11.68;100.00;102064.34;4955501;28;19970;-75
2022/10/27 00:45:52;;;;;;;;;;;;;;;11.68;100.00;102069.63;4955679;28;19933;-76
2022/10/27 00:48:17;;;;;;;;;;;;;;;11.68;100.00;102069.63;4954085;28;19925;-75
2022/10/27 00:50:42;;;;;;;;;;;;;;;11.67;100.00;102072.34;4935955;28;19925;-76
2022/10/27 00:53:08;;;;;;;;;;;;;;;11.68;100.00;102074.09;4922252;28;20537;-75
2022/10/27 00:55:34;;;;;;;;;;;;;;;11.69;100.00;102075.81;4954898;28;19979;-76
2022/10/27 00:58:01;;;;;;;;;;;;;;;11.68;100.00;102082.91;4934183;28;20091;-76
2022/10/27 01:00:26;;;;;;;;;;;;;;;11.68;100.00;102082.91;4920221;28;19929;-76
2022/10/27 01:02:51;;;;;;;;;;;;;;;11.69;100.00;102089.09;4933580;28;19930;-75
2022/10/27 01:05:24;;;;;;;;;;;;;;;11.70;100.00;102082.84;4921741;28;19949;-75
2022/10/27 01:07:50;;;;;;;;;;;;;;;11.69;100.00;102089.09;4935710;28;19957;-76
2022/10/27 01:10:16;;;;;;;;;;;;;;;11.70;100.00;102090.81;4923041;28;22214;-75
2022/10/27 01:12:42;;;;;;;;;;;;;;;11.69;100.00;102097.03;4933230;28;19931;-76
2022/10/27 01:15:08;;;;;;;;;;;;;;;11.70;100.00;102100.59;4937156;28;19934;-75
2022/10/27 01:17:39;;;;;;;;;;;;;;;11.69;100.00;102094.41;4934439;28;20274;-75
2022/10/27 01:20:28;;;;;;;;;;;;;;;11.70;100.00;102104.09;4953402;28;19930;-75
2022/10/27 01:22:56;;;;;;;;;;;;;;;11.71;100.00;102105.81;4920154;28;19926;-75
2022/10/27 01:25:40;;;;;;;;;;;;;;;11.70;100.00;102103.22;4953661;28;19936;-75
2022/10/27 01:28:17;;;;;;;;;;;;;;;11.67;100.00;102112.16;4953054;28;20209;-75
2022/10/27 01:30:52;;;;;;;;;;;;;;;11.63;100.00;102103.41;4953897;28;19937;-75
2022/10/27 01:33:19;;;;;;;;;;;;;;;11.59;100.00;102096.44;4954040;28;20029;-76
2022/10/27 01:35:47;;;;;;;;;;;;;;;11.58;100.00;102104.44;4922119;28;19930;-75
2022/10/27 01:38:12;;;;;;;;;;;;;;;11.56;100.00;102101.84;4952468;28;19989;-75
2022/10/27 01:40:47;;;;;;;;;;;;;;;11.54;100.00;102101.91;4952961;28;20488;-75
2022/10/27 01:43:13;;;;;;;;;;;;;;;11.53;100.00;102092.22;4953657;28;20735;-76
2022/10/27 01:45:38;;;;;;;;;;;;;;;11.53;100.00;102101.94;4921016;28;19930;-76
2022/10/27 01:48:04;;;;;;;;;;;;;;;11.54;100.00;102104.56;4937767;28;20468;-75
2022/10/27 01:50:32;;;;;;;;;;;;;;;11.54;100.00;102101.00;4951372;28;20020;-75
2022/10/27 01:52:57;;;;;;;;;;;;;;;11.53;100.00;102105.47;4953485;28;19933;-75
2022/10/27 01:55:26;;;;;;;;;;;;;;;11.52;100.00;102110.81;4935322;28;20278;-75
2022/10/27 01:57:55;;;;;;;;;;;;;;;11.54;100.00;102108.97;4952568;28;20398;-76
2022/10/27 02:00:21;;;;;;;;;;;;;;;11.55;100.00;102108.94;4934165;28;19933;-75
2022/10/27 02:02:47;;;;;;;;;;;;;;;11.56;100.00;102101.84;4922075;28;19929;-75
2022/10/27 02:05:26;;;;;;;;;;;;;;;11.57;100.00;102097.41;4904017;28;19930;-75
2022/10/27 02:08:14;;;;;;;;;;;;;;;11.60;100.00;102102.63;4932614;28;19947;-75
2022/10/27 02:10:46;;;;;;;;;;;;;;;11.63;100.00;102102.53;4924025;28;19926;-75
2022/10/27 02:13:11;;;;;;;;;;;;;;;11.67;100.00;102104.19;4934756;28;19927;-76
2022/10/27 02:15:38;;;;;;;;;;;;;;;11.71;100.00;102104.97;4952892;28;20490;-75
2022/10/27 02:18:10;;;;;;;;;;;;;;;11.72;100.00;102104.91;4932880;28;20324;-75
2022/10/27 02:20:40;;;;;;;;;;;;;;;11.75;100.00;102102.16;4951725;28;19930;-75
2022/10/27 02:23:06;;;;;;;;;;;;;;;11.78;100.00;102096.75;4952344;28;20320;-75
2022/10/27 02:25:34;;;;;;;;;;;;;;;11.82;100.00;102101.06;4932602;28;19966;-75
2022/10/27 02:28:00;;;;;;;;;;;;;;;11.84;100.00;102095.72;4932135;28;21590;-75
2022/10/27 02:30:26;;;;;;;;;;;;;;;11.86;100.00;102096.53;4919489;28;20348;-75
2022/10/27 02:32:51;;;;;;;;;;;;;;;11.88;100.00;102093.84;4932095;28;19930;-75
2022/10/27 02:35:17;;;;;;;;;;;;;;;11.92;100.00;102099.00;4934116;28;20430;-75
2022/10/27 02:37:42;;;;;;;;;;;;;;;11.96;100.00;102097.13;4933306;28;19926;-75
2022/10/27 02:40:08;;;;;;;;;;;;;;;11.97;100.00;102085.56;4943852;28;19973;-75
2022/10/27 02:42:34;;;;;;;;;;;;;;;11.99;100.00;102085.53;4947946;28;20036;-76
2022/10/27 02:44:59;;;;;;;;;;;;;;;12.00;100.00;102101.41;4951043;28;20020;-75
2022/10/27 02:47:25;;;;;;;;;;;;;;;12.01;100.00;102091.66;4951801;28;19926;-75
2022/10/27 02:49:50;;;;;;;;;;;;;;;12.05;100.00;102096.84;4952895;28;20429;-75
2022/10/27 02:52:16;;;;;;;;;;;;;;;12.07;100.00;102103.00;4949629;28;19964;-75
2022/10/27 02:54:42;;;;;;;;;;;;;;;12.12;100.00;102091.34;4951955;28;19984;-75
2022/10/27 02:57:07;;;;;;;;;;;;;;;12.16;100.00;102090.34;4949981;28;21467;-76
2022/10/27 02:59:33;;;;;;;;;;;;;;;12.21;100.00;102101.69;4949816;28;19935;-75
2022/10/27 03:01:59;;;;;;;;;;;;;;;12.23;100.00;102099.84;4934792;28;19930;-75
2022/10/27 03:04:25;;;;;;;;;;;;;;;12.28;100.00;102089.06;4946931;28;20417;-76
2022/10/27 03:06:51;;;;;;;;;;;;;;;12.31;100.00;102094.28;4952764;28;19937;-75
2022/10/27 03:09:16;;;;;;;;;;;;;;;12.34;100.00;102092.41;4952205;28;20012;-75
2022/10/27 03:11:42;;;;;;;;;;;;;;;12.35;100.00;102096.78;4946147;28;19925;-75
2022/10/27 03:14:07;;;;;;;;;;;;;;;12.38;100.00;102089.63;4951798;28;20005;-75
2022/10/27 03:16:33;;;;;;;;;;;;;;;12.41;100.00;102097.50;4950387;28;19934;-75
2022/10/27 03:18:58;;;;;;;;;;;;;;;12.44;100.00;102095.63;4967589;28;19930;-76
2022/10/27 03:21:24;;;;;;;;;;;;;;;12.45;100.00;102092.03;4951990;28;20296;-76
2022/10/27 03:23:49;;;;;;;;;;;;;;;12.46;100.00;102088.47;4951999;28;19930;-76
2022/10/27 03:26:15;;;;;;;;;;;;;;;12.49;100.00;102090.16;4950758;28;19957;-75
2022/10/27 03:28:40;;;;;;;;;;;;;;;12.48;100.00;102085.75;4952559;28;19930;-75
2022/10/27 03:31:06;;;;;;;;;;;;;;;12.49;100.00;102095.47;4930363;28;19926;-75
2022/10/27 03:33:32;;;;;;;;;;;;;;;12.50;100.00;102098.03;4952491;28;19936;-75
2022/10/27 03:35:57;;;;;;;;;;;;;;;12.51;100.00;102090.97;4948907;28;19930;-75
2022/10/27 03:38:23;;;;;;;;;;;;;;;12.53;100.00;102094.41;4952612;28;19969;-76
2022/10/27 03:40:48;;;;;;;;;;;;;;;12.53;100.00;102091.75;4948672;28;19929;-75
2022/10/27 03:43:14;;;;;;;;;;;;;;;12.52;100.00;102100.66;4950627;28;20740;-75
2022/10/27 03:45:39;;;;;;;;;;;;;;;12.49;100.00;102100.78;4954054;28;19929;-75
2022/10/27 03:48:05;;;;;;;;;;;;;;;12.46;100.00;102100.84;4971710;28;20389;-76
2022/10/27 03:50:31;;;;;;;;;;;;;;;12.44;100.00;102100.94;4954692;28;19926;-75
2022/10/27 03:52:56;;;;;;;;;;;;;;;12.42;100.00;102099.25;4950352;28;19929;-75
2022/10/27 03:55:22;;;;;;;;;;;;;;;12.38;100.00;102097.59;4935620;28;20309;-76
2022/10/27 03:57:48;;;;;;;;;;;;;;;12.32;100.00;102094.22;4971974;28;20377;-75
2022/10/27 04:00:13;;;;;;;;;;;;;;;12.29;100.00;102107.59;4951889;28;19968;-75
2022/10/27 04:02:38;;;;;;;;;;;;;;;12.24;100.00;102095.41;4970392;28;19977;-75
2022/10/27 04:05:04;;;;;;;;;;;;;;;12.19;100.00;102098.19;4971323;28;20013;-76
2022/10/27 04:07:29;;;;;;;;;;;;;;;12.16;100.00;102095.66;4969685;28;19980;-75
2022/10/27 04:09:55;;;;;;;;;;;;;;;12.13;100.00;102096.63;4968328;28;20052;-75
2022/10/27 04:12:20;;;;;;;;;;;;;;;12.11;100.00;102095.81;4970665;28;20368;-75
2022/10/27 04:14:47;;;;;;;;;;;;;;;12.08;100.00;102094.13;4948434;28;20316;-75
2022/10/27 04:17:13;;;;;;;;;;;;;;;12.05;100.00;102099.50;4970386;28;19945;-75
2022/10/27 04:19:38;;;;;;;;;;;;;;;12.02;100.00;102104.88;4970241;28;20205;-75
2022/10/27 04:22:04;;;;;;;;;;;;;;;12.00;100.00;102100.53;4951624;28;20479;-75
2022/10/27 04:24:29;;;;;;;;;;;;;;;11.98;100.00;102097.94;4952581;28;20079;-75
2022/10/27 04:26:55;;;;;;;;;;;;;;;11.97;100.00;102108.63;4969526;28;19930;-75
2022/10/27 04:29:21;;;;;;;;;;;;;;;11.97;100.00;102101.50;4939803;28;20578;-75
2022/10/27 04:31:46;;;;;;;;;;;;;;;11.95;100.00;102098.88;4952893;28;19930;-75
2022/10/27 04:34:12;;;;;;;;;;;;;;;11.92;100.00;102100.78;4969660;28;19930;-75
2022/10/27 04:36:37;;;;;;;;;;;;;;;11.89;100.00;102098.22;4969858;28;19926;-75
2022/10/27 04:39:02;;;;;;;;;;;;;;;11.88;100.00;102096.50;4946876;28;20435;-75
2022/10/27 04:41:28;;;;;;;;;;;;;;;11.86;100.00;102091.22;4948192;28;19984;-75
2022/10/27 04:43:53;;;;;;;;;;;;;;;11.87;100.00;102092.09;4949225;28;19938;-75
2022/10/27 04:46:18;;;;;;;;;;;;;;;11.86;100.00;102087.69;4951366;28;20584;-76
2022/10/27 04:48:44;;;;;;;;;;;;;;;11.86;100.00;102093.88;4951526;28;20008;-75
2022/10/27 04:51:09;;;;;;;;;;;;;;;11.87;100.00;102097.41;4950176;28;19931;-75
2022/10/27 04:53:35;;;;;;;;;;;;;;;11.86;100.00;102090.34;4951757;28;19942;-75
2022/10/27 04:56:00;;;;;;;;;;;;;;;11.86;100.00;102091.22;4949434;28;19934;-75
2022/10/27 04:58:26;;;;;;;;;;;;;;;11.88;100.00;102096.50;4951877;28;19930;-75
2022/10/27 05:00:51;;;;;;;;;;;;;;;11.91;100.00;102093.72;4950870;28;19930;-75
2022/10/27 05:03:17;;;;;;;;;;;;;;;11.92;100.00;102082.19;4949834;28;19934;-75
2022/10/27 05:05:42;;;;;;;;;;;;;;;11.95;100.00;102084.75;4950728;28;19949;-75
2022/10/27 05:08:08;;;;;;;;;;;;;;;11.97;100.00;102093.53;4933868;28;19976;-75
2022/10/27 05:10:33;;;;;;;;;;;;;;;12.00;100.00;102090.81;4950348;28;20021;-75
2022/10/27 05:12:59;;;;;;;;;;;;;;;12.04;100.00;102097.78;4950003;28;19934;-75
2022/10/27 05:15:24;;;;;;;;;;;;;;;12.07;100.00;102094.16;4945278;28;20433;-75
2022/10/27 05:17:50;;;;;;;;;;;;;;;12.12;100.00;102099.31;4949882;28;20381;-75
2022/10/27 05:20:15;;;;;;;;;;;;;;;12.15;100.00;102097.41;4950165;28;19934;-75
2022/10/27 05:22:40;;;;;;;;;;;;;;;12.17;100.00;102089.41;4950647;28;20447;-75
2022/10/27 05:25:06;;;;;;;;;;;;;;;12.20;100.00;102086.69;4947647;28;19941;-75
2022/10/27 05:27:32;;;;;;;;;;;;;;;12.23;100.00;102083.91;4948342;28;20397;-75
2022/10/27 05:29:57;;;;;;;;;;;;;;;12.25;100.00;102090.03;4949778;28;19921;-75
2022/10/27 05:32:23;;;;;;;;;;;;;;;12.28;100.00;102094.38;4947741;28;20081;-75
2022/10/27 05:34:48;;;;;;;;;;;;;;;12.31;100.00;102087.16;4948906;28;20396;-75
2022/10/27 05:37:14;;;;;;;;;;;;;;;12.32;100.00;102086.25;4937185;28;19930;-76
2022/10/27 05:39:39;;;;;;;;;;;;;;;12.34;100.00;102089.75;4947703;28;19926;-75
2022/10/27 05:42:05;;;;;;;;;;;;;;;12.36;100.00;102076.41;4952550;28;19930;-75
2022/10/27 05:44:30;;;;;;;;;;;;;;;12.38;100.00;102086.97;4954229;28;19941;-75
2022/10/27 05:46:55;;;;;;;;;;;;;;;12.38;100.00;102085.19;4952380;28;19926;-75
2022/10/27 05:49:21;;;;;;;;;;;;;;;12.41;100.00;102084.22;4953790;28;20441;-76
2022/10/27 05:51:50;;;;;;;;;;;;;;;12.43;100.00;102085.03;4953131;28;20000;-75
2022/10/27 05:54:15;;;;;;;;;;;;;;;12.46;100.00;102076.94;4948090;28;19934;-75
2022/10/27 05:56:40;;;;;;;;;;;;;;;12.48;100.00;102081.31;4950335;28;19933;-75
2022/10/27 05:59:06;;;;;;;;;;;;;;;12.50;100.00;102079.44;4953618;28;20532;-74
2022/10/27 06:01:31;;;;;;;;;;;;;;;12.51;100.00;102085.66;4948909;28;20452;-75
2022/10/27 06:03:57;;;;;;;;;;;;;;;12.53;100.00;102078.47;4953057;28;20009;-75
2022/10/27 06:06:22;;;;;;;;;;;;;;;12.55;100.00;102081.09;4951973;28;20401;-75
2022/10/27 06:08:48;;;;;;;;;;;;;;;12.55;100.00;102081.97;4949548;28;19965;-75
2022/10/27 06:11:13;;;;;;;;;;;;;;;12.56;100.00;102073.09;4951320;28;20277;-75
2022/10/27 06:13:39;;;;;;;;;;;;;;;12.57;100.00;102080.13;4954146;28;19931;-75
2022/10/27 06:16:04;;;;;;;;;;;;;;;12.59;100.00;102083.59;4951924;28;20467;-75
2022/10/27 06:18:30;;;;;;;;;;;;;;;12.58;100.00;102081.84;4951268;28;20007;-75
2022/10/27 06:20:55;;;;;;;;;;;;;;;12.59;100.00;102080.09;4952015;28;19930;-74
2022/10/27 06:23:20;;;;;;;;;;;;;;;12.59;100.00;102082.75;4951966;28;19930;-73
2022/10/27 06:25:46;;;;;;;;;;;;;;;12.58;100.00;102073.88;4952959;28;19930;-74
2022/10/27 06:28:11;;;;;;;;;;;;;;;12.58;100.00;102071.22;4952597;28;19969;-75
2022/10/27 06:30:37;;;;;;;;;;;;;;;12.58;100.00;102075.69;4949967;28;19942;-75
2022/10/27 06:33:02;;;;;;;;;;;;;;;12.56;100.00;102072.19;4952982;28;19930;-75
2022/10/27 06:35:27;;;;;;;;;;;;;;;12.55;100.00;102071.34;4945875;28;20539;-74
2022/10/27 06:37:53;;;;;;;;;;;;;;;12.54;100.00;102069.63;4952601;28;19926;-75
2022/10/27 06:40:18;;;;;;;;;;;;;;;12.52;100.00;102074.09;4952034;28;19930;-74
2022/10/27 06:42:46;;;;;;;;;;;;;;;12.49;100.00;102072.41;4951935;28;19930;-73
2022/10/27 06:45:11;;;;;;;;;;;;;;;12.48;100.00;102062.72;4952291;28;20378;-74
2022/10/27 06:47:37;;;;;;;;;;;;;;;12.47;100.00;102071.59;4951872;28;19941;-74
2022/10/27 06:50:02;;;;;;;;;;;;;;;12.46;100.00;102074.31;4952222;28;20402;-74
2022/10/27 06:52:28;;;;;;;;;;;;;;;12.44;100.00;102057.56;4951278;28;20307;-74
2022/10/27 06:54:53;;;;;;;;;;;;;;;12.41;100.00;102063.84;4953355;28;20460;-74
2022/10/27 06:57:19;;;;;;;;;;;;;;;12.41;100.00;102068.28;4930262;28;20456;-74
2022/10/27 06:59:44;;;;;;;;;;;;;;;12.38;100.00;102063.06;4952714;28;20504;-74
2022/10/27 07:02:13;;;;;;;;;;;;;;;12.38;100.00;102063.06;4952321;28;19934;-74
2022/10/27 07:04:39;;;;;;;;;;;;;;;12.36;100.00;102071.97;4934089;28;20380;-73
2022/10/27 07:07:04;;;;;;;;;;;;;;;12.36;100.00;102069.31;4953828;28;19985;-74
2022/10/27 07:09:30;;;;;;;;;;;;;;;12.36;100.00;102068.44;4934855;28;20101;-74
2022/10/27 07:11:55;;;;;;;;;;;;;;;12.35;100.00;102067.56;4951590;28;20433;-74
2022/10/27 07:14:21;;;;;;;;;;;;;;;12.35;100.00;102070.22;4951467;28;20009;-75
2022/10/27 07:16:46;;;;;;;;;;;;;;;12.35;100.00;102064.03;4952738;28;19981;-75
2022/10/27 07:19:12;;;;;;;;;;;;;;;12.35;100.00;102059.59;4953019;28;20398;-75
2022/10/27 07:21:37;;;;;;;;;;;;;;;12.35;100.00;102070.22;4952872;28;20518;-75
2022/10/27 07:24:02;;;;;;;;;;;;;;;12.38;100.00;102065.72;4952841;28;19931;-75
2022/10/27 07:26:28;;;;;;;;;;;;;;;12.40;100.00;102072.72;4950518;28;20449;-75
2022/10/27 07:28:54;;;;;;;;;;;;;;;12.42;100.00;102067.38;4921225;28;19933;-75
2022/10/27 07:31:19;;;;;;;;;;;;;;;12.44;100.00;102069.06;4932036;28;19937;-74
2022/10/27 07:33:45;;;;;;;;;;;;;;;12.45;100.00;102061.94;4942868;28;20279;-74
2022/10/27 07:36:10;;;;;;;;;;;;;;;12.48;100.00;102075.13;4950249;28;20290;-74
2022/10/27 07:38:36;;;;;;;;;;;;;;;12.51;100.00;102069.72;4951801;28;19933;-75
2022/10/27 07:41:01;;;;;;;;;;;;;;;12.54;100.00;102064.31;4970415;28;19930;-74
2022/10/27 07:43:26;;;;;;;;;;;;;;;12.59;100.00;102067.66;4953532;28;19932;-74
2022/10/27 07:45:52;;;;;;;;;;;;;;;12.61;100.00;102065.81;4969671;28;20225;-74
2022/10/27 07:48:17;;;;;;;;;;;;;;;12.66;100.00;102067.44;4970696;28;19930;-73
2022/10/27 07:50:43;;;;;;;;;;;;;;;12.71;100.00;102081.44;4970047;28;19953;-73
2022/10/27 07:53:08;;;;;;;;;;;;;;;12.74;100.00;102078.66;4951876;28;19932;-73
2022/10/27 07:55:35;;;;;;;;;;;;;;;12.76;100.00;102075.03;4950299;28;20422;-73
2022/10/27 07:58:00;;;;;;;;;;;;;;;12.80;100.00;102073.13;4952000;28;20408;-73
2022/10/27 08:00:26;;;;;;;;;;;;;;;12.82;100.00;102076.63;4965601;28;19987;-73
2022/10/27 08:02:54;;;;;;;;;;;;;;;12.84;100.00;102071.22;4950389;28;20368;-74
2022/10/27 08:05:19;;;;;;;;;;;;;;;12.85;100.00;102080.97;4966801;28;19992;-73
2022/10/27 08:07:45;;;;;;;;;;;;;;;12.86;100.00;102070.25;4964247;28;19961;-74
2022/10/27 08:10:10;;;;;;;;;;;;;;;12.87;100.00;102072.00;4944850;28;19941;-73
2022/10/27 08:12:42;;;;;;;;;;;;;;;12.87;100.00;102068.47;4946518;28;20020;-73
2022/10/27 08:15:08;;;;;;;;;;;;;;;12.87;100.00;102066.69;4931443;28;20480;-73
2022/10/27 08:17:34;;;;;;;;;;;;;;;12.88;100.00;102076.41;4961962;28;20379;-73
2022/10/27 08:19:59;;;;;;;;;;;;;;;12.90;100.00;102071.91;4947916;28;19930;-73
2022/10/27 08:22:25;;;;;;;;;;;;;;;12.94;100.00;102079.75;4968422;28;19930;-74
2022/10/27 08:24:50;;;;;;;;;;;;;;;12.98;100.00;102081.38;4950989;28;19934;-74
2022/10/27 08:27:16;;;;;;;;;;;;;;;13.03;100.00;102087.41;4965602;28;19929;-74
2022/10/27 08:29:41;;;;;;;;;;;;;;;13.06;100.00;102079.31;4967322;28;19926;-74
2022/10/27 08:32:08;;;;;;;;;;;;;;;13.14;100.00;102071.91;4966359;28;19934;-73
2022/10/27 08:34:33;;;;;;;;;;;;;;;13.21;100.00;102074.34;4964900;28;19926;-73
2022/10/27 08:36:59;;;;;;;;;;;;;;;13.27;100.00;102069.69;4964047;28;19936;-73
2022/10/27 08:39:24;;;;;;;;;;;;;;;13.36;100.00;102072.91;4949690;28;20013;-73
2022/10/27 08:41:54;;;;;;;;;;;;;;;13.47;100.00;102072.53;4941139;28;19936;-73
2022/10/27 08:44:28;;;;;;;;;;;;;;;13.54;100.00;102071.38;4925151;28;20834;-74
2022/10/27 08:46:55;;;;;;;;;;;;;;;13.64;100.00;102071.91;4944951;28;19977;-74
2022/10/27 08:49:28;;;;;;;;;;;;;;;13.70;100.00;102072.53;4914478;28;20013;-74
2022/10/27 08:51:56;;;;;;;;;;;;;;;13.80;100.00;102073.03;4944674;28;19930;-74
2022/10/27 08:54:24;;;;;;;;;;;;;;;13.87;100.00;102062.13;4945091;28;19969;-74
2022/10/27 08:56:50;;;;;;;;;;;;;;;13.94;100.00;102059.16;4924751;28;19965;-76
2022/10/27 08:59:18;;;;;;;;;;;;;;;14.00;100.00;102052.72;4932890;28;20266;-74
2022/10/27 09:01:49;;;;;;;;;;;;;;;14.05;100.00;102055.22;4930662;28;20037;-74
2022/10/27 09:04:18;;;;;;;;;;;;;;;14.08;100.00;102045.31;4920254;28;20333;-74
2022/10/27 09:07:02;;;;;;;;;;;;;;;14.12;100.00;102052.22;4930988;28;19926;-75
2022/10/27 09:09:47;;;;;;;;;;;;;;;14.18;100.00;102050.25;4950242;28;20021;-75
2022/10/27 09:12:14;;;;;;;;;;;;;;;14.21;100.00;102050.97;4931958;28;19952;-74
2022/10/27 09:14:46;;;;;;;;;;;;;;;14.27;100.00;102044.50;4951990;28;19941;-75
2022/10/27 09:17:13;;;;;;;;;;;;;;;14.32;100.00;102041.69;4934900;28;20381;-76
2022/10/27 09:19:40;;;;;;;;;;;;;;;14.37;100.00;102050.31;4934476;28;19961;-76
2022/10/27 09:22:05;;;;;;;;;;;;;;;14.42;100.00;102048.34;4933152;28;19926;-76
2022/10/27 09:24:31;;;;;;;;;;;;;;;14.46;100.00;102049.94;4931339;28;19930;-76
2022/10/27 09:26:56;;;;;;;;;;;;;;;14.51;100.00;102050.59;4930131;28;19930;-77
2022/10/27 09:29:22;;;;;;;;;;;;;;;14.56;100.00;102046.88;4932666;28;19975;-76
2022/10/27 09:31:50;;;;;;;;;;;;;;;14.60;100.00;102044.00;4951290;28;19938;-77
2022/10/27 09:34:26;;;;;;;;;;;;;;;14.64;100.00;102039.41;4920179;28;19934;-77
2022/10/27 09:36:51;;;;;;;;;;;;;;;14.67;100.00;102036.63;4932738;28;19930;-76
2022/10/27 09:39:17;;;;;;;;;;;;;;;14.69;100.00;102032.09;4937133;28;19930;-77
2022/10/27 09:41:42;;;;;;;;;;;;;;;14.72;100.00;102031.97;4933465;28;19937;-76
2022/10/27 09:44:14;;;;;;;;;;;;;;;14.73;100.00;102028.38;4952955;28;20018;-76
2022/10/27 09:46:39;;;;;;;;;;;;;;;14.75;100.00;102026.50;4951320;28;20001;-76
2022/10/27 09:49:05;;;;;;;;;;;;;;;14.78;100.00;102022.84;4953912;28;19938;-76
2022/10/27 09:51:51;;;;;;;;;;;;;;;14.80;100.00;102016.53;4931922;28;20360;-77
2022/10/27 09:54:33;;;;;;;;;;;;;;;14.83;100.00;102014.66;4951836;28;19941;-76
2022/10/27 09:57:05;;;;;;;;;;;;;;;14.86;100.00;102014.53;4950031;28;19930;-76
2022/10/27 09:59:30;;;;;;;;;;;;;;;14.90;100.00;102008.97;4951633;28;19926;-81
2022/10/27 10:01:58;;;;;;;;;;;;;;;14.94;100.00;102007.88;4951198;28;20381;-76
2022/10/27 10:04:27;;;;;;;;;;;;;;;14.99;100.00;102001.50;4952233;28;19961;-76
2022/10/27 10:06:55;;;;;;;;;;;;;;;15.03;100.00;102001.28;4952235;28;19933;-76
2022/10/27 10:09:24;;;;;;;;;;;;;;;15.09;100.00;102001.94;4947580;28;19933;-77
2022/10/27 10:11:50;;;;;;;;;;;;;;;15.14;100.00;101989.25;4951138;28;20496;-76
2022/10/27 10:14:20;;;;;;;;;;;;;;;15.19;100.00;101995.22;4949806;28;20219;-76
2022/10/27 10:16:46;;;;;;;;;;;;;;;15.23;100.00;101996.81;4950316;28;19934;-76
2022/10/27 10:19:18;;;;;;;;;;;;;;;15.26;100.00;101994.00;4944826;28;20439;-76
2022/10/27 10:21:45;;;;;;;;;;;;;;;15.30;100.00;101992.03;4950494;28;20012;-76
2022/10/27 10:24:37;;;;;;;;;;;;;;;15.33;100.00;101990.13;4950788;28;19930;-76
2022/10/27 10:27:03;;;;;;;;;;;;;;;15.38;100.00;101995.22;4942304;28;21723;-76
2022/10/27 10:29:47;;;;;;;;;;;;;;;15.42;100.00;101990.63;4930929;28;20536;-76
2022/10/27 10:32:22;;;;;;;;;;;;;;;15.46;100.00;101987.72;4967779;28;19936;-76
2022/10/27 10:34:49;;;;;;;;;;;;;;;15.54;100.00;101990.03;4947755;28;19973;-76
2022/10/27 10:37:29;;;;;;;;;;;;;;;15.61;100.00;101980.78;4949670;28;20732;-76
2022/10/27 10:39:54;;;;;;;;;;;;;;;15.67;100.00;101973.41;4951517;28;19926;-76
2022/10/27 10:42:20;;;;;;;;;;;;;;;15.76;100.00;101978.31;4948165;28;19933;-76
2022/10/27 10:44:46;;;;;;;;;;;;;;;15.81;100.00;101965.59;4930217;28;19930;-76
2022/10/27 10:47:27;;;;;;;;;;;;;;;15.87;100.00;101967.94;4930923;28;20709;-76
2022/10/27 10:49:56;;;;;;;;;;;;;;;15.93;100.00;101965.94;4932302;28;20021;-76
2022/10/27 10:52:23;;;;;;;;;;;;;;;15.97;100.00;101967.50;4948763;28;19976;-76
2022/10/27 10:54:48;;;;;;;;;;;;;;;15.98;100.00;101954.09;4951559;28;20161;-76
2022/10/27 10:57:23;;;;;;;;;;;;;;;16.02;100.00;101949.47;4933026;28;20303;-76
2022/10/27 10:59:48;;;;;;;;;;;;;;;16.09;100.00;101950.88;4944888;28;20617;-76
2022/10/27 11:02:14;;;;;;;;;;;;;;;16.15;100.00;101949.69;4928612;28;20108;-76
2022/10/27 11:04:43;;;;;;;;;;;;;;;16.17;100.00;101945.13;4951556;28;19926;-75
2022/10/27 11:07:11;;;;;;;;;;;;;;;16.20;100.00;101949.44;4951236;28;19926;-76
2022/10/27 11:09:38;;;;;;;;;;;;;;;16.20;100.00;101949.44;4951936;28;19956;-76
2022/10/27 11:12:04;;;;;;;;;;;;;;;16.23;100.00;101946.63;4930785;28;19930;-77
2022/10/27 11:14:30;;;;;;;;;;;;;;;16.25;100.00;101944.72;4929579;28;19921;-75
2022/10/27 11:16:57;;;;;;;;;;;;;;;16.26;100.00;101938.44;4928159;28;20381;-75
2022/10/27 11:19:23;;;;;;;;;;;;;;;16.28;100.00;101932.06;4929606;28;19931;-75
2022/10/27 11:21:48;;;;;;;;;;;;;;;16.30;100.00;101929.31;4935596;28;19930;-75
2022/10/27 11:24:15;;;;;;;;;;;;;;;16.34;100.00;101922.84;4952948;28;19989;-74
2022/10/27 11:26:42;;;;;;;;;;;;;;;16.37;100.00;101925.38;4950605;28;19926;-75
2022/10/27 11:29:07;;;;;;;;;;;;;;;16.40;100.00;101913.66;4933123;28;19937;-75
2022/10/27 11:31:36;;;;;;;;;;;;;;;16.42;100.00;101912.66;4952429;28;19930;-75
2022/10/27 11:34:06;;;;;;;;;;;;;;;16.45;100.00;101914.25;4952027;28;19937;-75
2022/10/27 11:36:33;;;;;;;;;;;;;;;16.51;100.00;101907.75;4936306;28;19926;-75
2022/10/27 11:38:58;;;;;;;;;;;;;;;16.59;100.00;101907.31;4929437;28;20080;-75
2022/10/27 11:41:31;;;;;;;;;;;;;;;16.64;100.00;101899.91;4948809;28;20021;-75
2022/10/27 11:44:00;;;;;;;;;;;;;;;16.70;100.00;101892.44;4930571;28;19926;-75
2022/10/27 11:46:27;;;;;;;;;;;;;;;16.79;100.00;101892.88;4948662;28;19966;-75
2022/10/27 11:48:55;;;;;;;;;;;;;;;16.84;100.00;101891.66;4930007;28;19960;-75
2022/10/27 11:51:22;;;;;;;;;;;;;;;16.94;100.00;101881.31;4931038;28;19981;-76
2022/10/27 11:53:50;;;;;;;;;;;;;;;17.05;100.00;101885.25;4913432;28;20354;-75
2022/10/27 11:56:16;;;;;;;;;;;;;;;17.12;100.00;101881.25;4949839;28;19976;-75
2022/10/27 11:58:44;;;;;;;;;;;;;;;17.17;100.00;101876.50;4951503;28;19926;-75
2022/10/27 12:01:09;;;;;;;;;;;;;;;17.22;100.00;101870.91;4951056;28;20312;-75
2022/10/27 12:03:38;;;;;;;;;;;;;;;17.23;100.00;101868.13;4951348;28;19926;-75
2022/10/27 12:06:15;;;;;;;;;;;;;;;17.26;100.00;101864.41;4951479;28;19930;-75
2022/10/27 12:08:48;;;;;;;;;;;;;;;17.26;100.00;101855.53;4949817;28;19930;-75
2022/10/27 12:11:18;;;;;;;;;;;;;;;17.24;100.00;101864.50;4948403;28;19932;-76
2022/10/27 12:14:23;;;;;;;;;;;;;;;17.24;100.00;101859.16;4920007;28;19925;-76
2022/10/27 12:17:08;;;;;;;;;;;;;;;17.22;100.00;101847.66;4872572;29;19932;-75
2022/10/27 12:19:43;;;;;;;;;;;;;;;17.20;100.00;101846.03;4872063;29;20471;-76
2022/10/27 12:22:27;;;;;;;;;;;;;;;17.18;100.00;101846.13;4906155;28;20081;-76
2022/10/27 12:24:56;;;;;;;;;;;;;;;17.17;100.00;101841.72;4950663;28;19934;-75
2022/10/27 12:27:24;;;;;;;;;;;;;;;17.16;100.00;101848.00;4946970;28;19930;-75
2022/10/27 12:29:51;;;;;;;;;;;;;;;17.18;100.00;101846.13;4926532;28;19930;-75